createdAt,value
2019-04-05T00:01:14.531Z,91.50
2019-04-05T00:03:41.221Z,91.50
2019-04-05T00:06:08.132Z,91.70
2019-04-05T00:08:34.907Z,91.40
2019-04-05T00:11:02.106Z,91.40
2019-04-05T00:13:28.885Z,91.50
2019-04-05T00:15:55.684Z,91.60
2019-04-05T00:18:22.333Z,91.80
2019-04-05T00:20:49.090Z,91.80
2019-04-05T00:23:15.877Z,92.00
2019-04-05T00:25:42.583Z,92.10
2019-04-05T00:28:09.363Z,91.60
2019-04-05T00:30:36.137Z,91.70
2019-04-05T00:33:03.052Z,91.80
2019-04-05T00:35:29.798Z,92.10
2019-04-05T00:37:56.614Z,92.80
2019-04-05T00:40:23.480Z,92.30
2019-04-05T00:42:50.339Z,92.50
2019-04-05T00:45:27.493Z,92.40
2019-04-05T00:47:45.613Z,92.50
2019-04-05T00:50:12.549Z,92.30
2019-04-05T00:52:39.342Z,92.50
2019-04-05T00:55:06.276Z,92.10
2019-04-05T00:57:33.244Z,92.00
2019-04-05T00:59:59.917Z,92.00
2019-04-05T01:02:26.684Z,91.90
2019-04-05T01:04:53.439Z,91.90
2019-04-05T01:07:20.332Z,91.90
2019-04-05T01:09:47.184Z,92.50
2019-04-05T01:12:14.538Z,92.10
2019-04-05T01:14:41.770Z,92.10
2019-04-05T01:17:08.523Z,91.90
2019-04-05T01:19:38.915Z,91.80
2019-04-05T01:22:07.862Z,92.00
2019-04-05T01:24:35.040Z,91.10
2019-04-05T01:27:02.776Z,91.20
2019-04-05T01:29:29.758Z,91.50
2019-04-05T01:31:56.488Z,91.70
2019-04-05T01:34:23.174Z,91.50
2019-04-05T01:36:49.893Z,90.80
2019-04-05T01:39:16.644Z,90.70
2019-04-05T01:41:43.900Z,88.50
2019-04-05T01:44:10.577Z,87.70
2019-04-05T01:46:37.406Z,87.00
2019-04-05T01:49:04.245Z,83.80
2019-04-05T01:51:31.511Z,81.50
2019-04-05T01:53:58.280Z,81.60
2019-04-05T01:56:25.230Z,78.30
2019-04-05T01:58:52.112Z,76.90
2019-04-05T02:01:19.396Z,77.30
2019-04-05T02:03:46.165Z,76.00
2019-04-05T02:06:12.941Z,76.20
2019-04-05T02:08:39.884Z,75.30
2019-04-05T02:11:06.863Z,75.40
2019-04-05T02:13:33.549Z,76.20
2019-04-05T02:16:06.288Z,76.40
2019-04-05T02:18:28.852Z,76.40
2019-04-05T02:20:55.540Z,75.20
2019-04-05T02:23:22.274Z,74.80
2019-04-05T02:25:49.032Z,75.40
2019-04-05T02:28:15.736Z,74.30
2019-04-05T02:30:42.490Z,73.90
2019-04-05T02:33:09.296Z,73.30
2019-04-05T02:35:39.053Z,74.30
2019-04-05T02:38:05.080Z,73.10
2019-04-05T02:40:34.852Z,73.90
2019-04-05T02:43:03.248Z,76.20
2019-04-05T02:45:32.607Z,77.10
2019-04-05T02:50:31.665Z,76.70
2019-04-05T02:53:01.548Z,80.10
2019-04-05T02:55:29.023Z,79.10
2019-04-05T02:57:57.537Z,80.30
2019-04-05T03:00:25.500Z,79.10
2019-04-05T03:02:53.668Z,82.40
2019-04-05T03:05:21.466Z,81.00
2019-04-05T03:07:48.818Z,82.50
2019-04-05T03:10:51.486Z,80.40
2019-04-05T03:13:18.358Z,75.70
2019-04-05T03:15:45.233Z,74.10
2019-04-05T03:18:12.122Z,72.60
2019-04-05T03:20:39.100Z,71.70
2019-04-05T03:23:06.181Z,71.30
2019-04-05T03:25:33.376Z,70.80
2019-04-05T03:28:00.850Z,70.50
2019-04-05T03:30:27.978Z,70.50
2019-04-05T03:32:54.924Z,70.40
2019-04-05T03:35:22.083Z,70.30
2019-04-05T03:37:49.036Z,70.80
2019-04-05T03:40:15.998Z,72.60
2019-04-05T03:42:42.968Z,74.20
2019-04-05T03:45:10.009Z,74.20
2019-04-05T03:47:36.827Z,74.70
2019-04-05T03:50:05.536Z,74.60
2019-04-05T03:52:32.315Z,76.60
2019-04-05T03:54:59.207Z,79.70
2019-04-05T03:57:25.971Z,81.20
2019-04-05T03:59:52.729Z,80.70
2019-04-05T04:02:23.326Z,82.20
2019-04-05T04:04:48.315Z,82.50
2019-04-05T04:07:15.230Z,82.50
2019-04-05T04:09:42.139Z,83.10
2019-04-05T04:12:08.872Z,84.00
2019-04-05T04:14:36.042Z,84.60
2019-04-05T04:17:12.085Z,82.70
2019-04-05T04:19:32.380Z,81.60
2019-04-05T04:22:24.244Z,82.50
2019-04-05T04:24:51.530Z,84.70
2019-04-05T04:27:18.465Z,85.90
2019-04-05T04:29:45.233Z,86.70
2019-04-05T04:32:12.512Z,86.80
2019-04-05T04:34:39.298Z,87.10
2019-04-05T04:37:06.178Z,85.70
2019-04-05T04:39:33.081Z,86.70
2019-04-05T04:42:00.699Z,87.30
2019-04-05T04:44:27.904Z,89.30
2019-04-05T04:46:54.870Z,88.70
2019-04-05T04:49:21.912Z,87.30
2019-04-05T04:51:48.932Z,89.20
2019-04-05T04:54:16.474Z,88.50
2019-04-05T04:56:43.781Z,90.60
2019-04-05T04:59:10.893Z,89.80
2019-04-05T05:01:37.851Z,88.50
2019-04-05T05:04:04.803Z,86.30
2019-04-05T05:06:32.189Z,83.90
2019-04-05T05:08:59.378Z,84.70
2019-04-05T05:11:26.324Z,84.20
2019-04-05T05:13:53.524Z,81.00
2019-04-05T05:16:20.543Z,81.60
2019-04-05T05:18:47.500Z,79.30
2019-04-05T05:21:14.383Z,77.30
2019-04-05T05:23:41.902Z,75.20
2019-04-05T05:26:08.765Z,74.20
2019-04-05T05:28:35.980Z,72.90
2019-04-05T05:31:03.242Z,73.20
2019-04-05T05:33:30.444Z,70.70
2019-04-05T05:35:57.517Z,70.60
2019-04-05T05:38:24.325Z,72.10
2019-04-05T05:40:51.159Z,72.80
2019-04-05T05:43:18.652Z,71.50
2019-04-05T05:45:45.658Z,73.60
2019-04-05T05:48:12.952Z,75.60
2019-04-05T05:50:40.254Z,77.40
2019-04-05T05:53:07.230Z,75.10
2019-04-05T05:55:34.158Z,75.30
2019-04-05T05:58:01.035Z,77.90
2019-04-05T06:00:30.168Z,79.00
2019-04-05T06:02:56.617Z,80.30
2019-04-05T06:05:23.511Z,78.00
2019-04-05T06:07:50.552Z,74.40
2019-04-05T06:10:17.523Z,74.20
2019-04-05T06:12:45.557Z,73.50
2019-04-05T06:15:12.756Z,73.60
2019-04-05T06:17:39.494Z,73.80
2019-04-05T06:20:07.293Z,72.30
2019-04-05T06:22:34.104Z,72.30
2019-04-05T06:25:00.867Z,72.00
2019-04-05T06:27:27.795Z,71.30
2019-04-05T06:29:54.622Z,71.40
2019-04-05T06:32:21.622Z,71.20
2019-04-05T06:34:48.609Z,71.90
2019-04-05T06:37:16.642Z,71.40
2019-04-05T06:39:43.386Z,71.40
2019-04-05T06:42:10.221Z,71.30
2019-04-05T06:44:38.059Z,71.40
2019-04-05T06:47:05.134Z,71.50
2019-04-05T06:49:31.980Z,71.50
2019-04-05T06:51:58.918Z,72.20
2019-04-05T06:54:25.581Z,72.10
2019-04-05T06:56:52.393Z,71.20
2019-04-05T06:59:19.475Z,71.70
2019-04-05T07:01:46.387Z,71.20
2019-04-05T07:04:13.389Z,72.10
2019-04-05T07:06:40.383Z,72.00
2019-04-05T07:09:07.356Z,72.50
2019-04-05T07:11:34.172Z,72.30
2019-04-05T07:14:00.973Z,71.40
2019-04-05T07:16:27.747Z,70.70
2019-04-05T07:18:54.704Z,69.50
2019-04-05T07:21:21.686Z,69.70
2019-04-05T07:23:48.578Z,70.00
2019-04-05T07:26:15.461Z,69.80
2019-04-05T07:28:42.672Z,70.80
2019-04-05T07:31:09.573Z,75.30
2019-04-05T07:33:36.626Z,76.90
2019-04-05T07:36:03.841Z,75.20
2019-04-05T07:38:31.628Z,75.80
2019-04-05T07:40:58.450Z,80.10
2019-04-05T07:43:25.370Z,80.40
2019-04-05T07:45:52.233Z,81.10
2019-04-05T07:48:19.021Z,82.80
2019-04-05T07:50:45.915Z,84.40
2019-04-05T07:53:12.976Z,85.10
2019-04-05T07:55:39.847Z,83.20
2019-04-05T07:58:06.724Z,83.10
2019-04-05T08:00:42.933Z,84.10
2019-04-05T08:03:10.607Z,85.70
2019-04-05T08:05:37.533Z,83.20
2019-04-05T08:08:07.896Z,84.20
2019-04-05T08:10:34.856Z,84.90
2019-04-05T08:13:02.874Z,83.50
2019-04-05T08:15:30.513Z,83.40
2019-04-05T08:17:57.399Z,84.10
2019-04-05T08:20:25.327Z,84.20
2019-04-05T08:22:52.522Z,83.80
2019-04-05T08:25:19.394Z,84.60
2019-04-05T08:27:46.223Z,81.80
2019-04-05T08:30:13.106Z,81.00
2019-04-05T08:32:40.099Z,80.90
2019-04-05T08:35:07.006Z,80.70
2019-04-05T08:37:33.864Z,79.50
2019-04-05T08:40:00.661Z,79.30
2019-04-05T08:42:27.536Z,77.50
2019-04-05T08:44:54.435Z,78.00
2019-04-05T08:47:22.593Z,78.10
2019-04-05T08:49:49.490Z,75.80
2019-04-05T08:52:16.315Z,75.50
2019-04-05T08:54:43.420Z,73.90
2019-04-05T08:57:10.305Z,73.70
2019-04-05T08:59:36.991Z,73.20
2019-04-05T09:02:05.063Z,75.10
2019-04-05T09:04:32.933Z,74.70
2019-04-05T09:07:01.403Z,75.80
2019-04-05T09:09:28.211Z,78.50
2019-04-05T09:11:55.067Z,79.30
2019-04-05T09:14:21.895Z,79.90
2019-04-05T09:16:48.643Z,81.10
2019-04-05T09:19:23.364Z,82.80
2019-04-05T09:21:44.302Z,82.40
2019-04-05T09:24:11.140Z,83.10
2019-04-05T09:26:38.064Z,83.30
2019-04-05T09:29:05.039Z,84.50
2019-04-05T09:31:31.753Z,86.10
2019-04-05T09:33:58.619Z,85.40
2019-04-05T09:36:25.588Z,83.50
2019-04-05T09:38:52.497Z,81.90
2019-04-05T09:41:19.374Z,80.90
2019-04-05T09:43:46.248Z,82.50
2019-04-05T09:46:13.166Z,82.30
2019-04-05T09:48:40.052Z,82.30
2019-04-05T09:51:07.303Z,80.30
2019-04-05T09:53:34.396Z,80.20
2019-04-05T09:56:01.494Z,80.50
2019-04-05T09:58:28.773Z,80.60
2019-04-05T10:00:55.683Z,79.90
2019-04-05T10:03:22.557Z,80.60
2019-04-05T10:05:49.440Z,81.50
2019-04-05T10:08:16.413Z,82.00
2019-04-05T10:10:43.296Z,81.20
2019-04-05T10:13:10.424Z,80.80
2019-04-05T10:15:37.470Z,79.00
2019-04-05T10:18:04.454Z,79.20
2019-04-05T10:20:31.357Z,79.00
2019-04-05T10:23:00.017Z,80.10
2019-04-05T10:25:26.908Z,80.00
2019-04-05T10:27:53.995Z,80.10
2019-04-05T10:30:20.981Z,78.60
2019-04-05T10:32:47.841Z,80.70
2019-04-05T10:35:14.835Z,80.60
2019-04-05T10:37:41.688Z,81.50
2019-04-05T10:40:08.879Z,83.10
2019-04-05T10:42:36.427Z,82.10
2019-04-05T10:45:06.838Z,84.70
2019-04-05T10:47:33.619Z,84.30
2019-04-05T10:50:03.362Z,84.00
2019-04-05T10:52:29.218Z,84.70
2019-04-05T10:54:57.985Z,83.60
2019-04-05T10:57:24.953Z,84.10
2019-04-05T10:59:51.898Z,85.40
2019-04-05T11:02:18.950Z,87.80
2019-04-05T11:04:45.936Z,86.50
2019-04-05T11:07:12.917Z,88.50
2019-04-05T11:09:39.738Z,87.90
2019-04-05T11:12:08.661Z,90.10
2019-04-05T11:14:35.254Z,90.70
2019-04-05T11:17:04.479Z,91.80
2019-04-05T11:19:32.667Z,91.40
2019-04-05T11:21:59.555Z,92.30
2019-04-05T11:24:26.337Z,92.00
2019-04-05T11:26:53.214Z,92.40
2019-04-05T11:29:20.037Z,92.10
2019-04-05T11:31:56.788Z,91.90
2019-04-05T11:34:15.871Z,92.50
2019-04-05T11:36:43.998Z,91.70
2019-04-05T11:39:10.750Z,92.10
2019-04-05T11:41:39.631Z,93.20
2019-04-05T11:44:06.493Z,92.70
2019-04-05T11:46:36.306Z,92.90
2019-04-05T11:49:04.498Z,93.60
2019-04-05T11:51:31.609Z,94.00
2019-04-05T11:53:58.671Z,93.60
2019-04-05T11:56:25.578Z,92.70
2019-04-05T11:58:52.571Z,92.80
2019-04-05T12:01:23.834Z,93.10
2019-04-05T12:03:50.709Z,93.60
2019-04-05T12:06:18.745Z,93.90
2019-04-05T12:08:45.663Z,93.50
2019-04-05T12:11:13.658Z,94.50
2019-04-05T12:13:40.879Z,93.90
2019-04-05T12:16:10.344Z,93.60
2019-04-05T12:18:36.610Z,93.80
2019-04-05T12:21:05.692Z,93.70
2019-04-05T12:23:33.357Z,93.90
2019-04-05T12:26:03.910Z,94.40
2019-04-05T12:28:29.222Z,94.80
2019-04-05T12:30:56.114Z,94.70
2019-04-05T12:33:23.012Z,94.90
2019-04-05T12:35:52.995Z,94.30
2019-04-05T12:38:31.560Z,95.00
2019-04-05T12:41:03.018Z,94.20
2019-04-05T12:43:30.426Z,94.40
2019-04-05T12:45:57.290Z,94.90
2019-04-05T12:48:24.117Z,94.30
2019-04-05T12:51:00.614Z,94.20
2019-04-05T12:53:20.110Z,94.50
2019-04-05T12:55:46.944Z,95.10
2019-04-05T12:58:13.724Z,95.50
2019-04-05T13:00:40.513Z,93.50
2019-04-05T13:03:07.413Z,95.30
2019-04-05T13:05:34.273Z,94.50
2019-04-05T13:08:01.046Z,95.10
2019-04-05T13:10:30.300Z,94.60
2019-04-05T13:12:57.710Z,94.80
2019-04-05T13:15:25.099Z,94.80
2019-04-05T13:17:52.043Z,95.00
2019-04-05T13:20:19.190Z,95.00
2019-04-05T13:22:46.067Z,94.90
2019-04-05T13:25:13.174Z,95.30
2019-04-05T13:27:41.522Z,95.90
2019-04-05T13:30:09.025Z,96.10
2019-04-05T13:32:36.209Z,94.80
2019-04-05T13:35:05.187Z,95.70
2019-04-05T13:37:32.076Z,95.10
2019-04-05T13:40:00.058Z,94.90
2019-04-05T13:42:27.336Z,95.60
2019-04-05T13:44:54.274Z,95.60
2019-04-05T13:47:22.871Z,95.50
2019-04-05T13:49:49.585Z,95.10
2019-04-05T13:52:16.496Z,95.30
2019-04-05T13:54:43.563Z,94.20
2019-04-05T13:57:11.382Z,95.30
2019-04-05T13:59:38.421Z,91.70
2019-04-05T14:02:06.574Z,93.80
2019-04-05T14:04:33.752Z,93.80
2019-04-05T14:07:00.528Z,93.90
2019-04-05T14:09:27.311Z,93.60
2019-04-05T14:11:54.313Z,94.70
2019-04-05T14:14:21.302Z,94.00
2019-04-05T14:16:48.212Z,94.60
2019-04-05T14:19:18.303Z,94.00
2019-04-05T14:21:47.671Z,94.00
2019-04-05T14:24:12.486Z,94.60
2019-04-05T14:26:43.377Z,94.90
2019-04-05T14:29:08.035Z,95.40
2019-04-05T14:31:35.015Z,95.30
2019-04-05T14:34:01.934Z,95.10
2019-04-05T14:36:29.146Z,95.30
2019-04-05T14:38:56.025Z,95.50
2019-04-05T14:41:22.817Z,95.50
2019-04-05T14:43:49.883Z,95.00
2019-04-05T14:46:16.977Z,95.80
2019-04-05T14:48:43.912Z,95.90
2019-04-05T14:51:10.715Z,95.30
2019-04-05T14:53:37.886Z,95.70
2019-04-05T14:56:04.869Z,95.90
2019-04-05T14:58:31.741Z,96.60
2019-04-05T15:00:58.540Z,97.10
2019-04-05T15:03:25.508Z,96.50
2019-04-05T15:05:52.408Z,96.80
2019-04-05T15:08:20.701Z,97.10
2019-04-05T15:10:47.921Z,97.20
2019-04-05T15:13:14.885Z,97.70
2019-04-05T15:15:41.887Z,97.70
2019-04-05T15:18:08.889Z,97.80
2019-04-05T15:20:35.680Z,97.20
2019-04-05T15:23:02.558Z,96.80
2019-04-05T15:25:29.719Z,97.10
2019-04-05T15:27:56.432Z,96.50
2019-04-05T15:30:25.697Z,95.30
2019-04-05T15:32:52.055Z,95.60
2019-04-05T15:35:18.886Z,94.90
2019-04-05T15:37:45.684Z,95.00
2019-04-05T15:40:12.995Z,95.50
2019-04-05T15:42:40.020Z,94.10
2019-04-05T15:45:08.206Z,94.90
2019-04-05T15:47:35.375Z,95.50
2019-04-05T15:50:03.524Z,95.30
2019-04-05T15:52:32.060Z,95.30
2019-04-05T15:54:58.994Z,95.70
2019-04-05T15:57:25.855Z,96.00
2019-04-05T15:59:52.691Z,96.30
2019-04-05T16:02:19.676Z,96.90
2019-04-05T16:04:46.442Z,97.00
2019-04-05T16:07:13.325Z,96.40
2019-04-05T16:09:40.438Z,97.00
2019-04-05T16:12:07.323Z,97.60
2019-04-05T16:14:34.516Z,97.80
2019-04-05T16:17:01.279Z,98.20
2019-04-05T16:19:28.309Z,98.60
2019-04-05T16:21:55.334Z,99.00
2019-04-05T16:24:22.149Z,99.00
2019-04-05T16:26:49.099Z,98.20
2019-04-05T16:29:16.003Z,98.60
2019-04-05T16:31:43.008Z,99.00
2019-04-05T16:34:10.158Z,97.50
2019-04-05T16:36:37.033Z,98.20
2019-04-05T16:39:07.844Z,98.10
2019-04-05T16:41:36.041Z,97.50
2019-04-05T16:44:03.020Z,97.00
2019-04-05T16:46:30.105Z,97.70
2019-04-05T16:48:57.085Z,97.30
2019-04-05T16:51:23.955Z,97.10
2019-04-05T16:54:01.523Z,96.20
2019-04-05T16:56:29.352Z,96.90
2019-04-05T16:58:56.709Z,96.90
2019-04-05T17:01:27.461Z,97.80
2019-04-05T17:03:52.462Z,98.30
2019-04-05T17:06:19.472Z,98.20
2019-04-05T17:08:46.753Z,98.10
2019-04-05T17:11:14.011Z,98.80
2019-04-05T17:13:40.742Z,99.00
2019-04-05T17:16:07.877Z,98.90
2019-04-05T17:18:34.851Z,99.00
2019-04-05T17:21:02.088Z,99.20
2019-04-05T17:23:29.416Z,99.20
2019-04-05T17:25:56.591Z,99.30
2019-04-05T17:28:23.722Z,99.50
2019-04-05T17:30:50.747Z,99.60
2019-04-05T17:33:18.645Z,99.80
2019-04-05T17:35:45.750Z,99.90
2019-04-05T17:38:12.845Z,99.90
2019-04-05T17:40:39.989Z,99.90
2019-04-05T17:43:06.776Z,99.90
2019-04-05T17:45:33.856Z,99.90
2019-04-05T17:48:00.728Z,99.90
2019-04-05T17:50:29.883Z,99.90
2019-04-05T17:52:56.783Z,99.90
2019-04-05T17:55:23.681Z,99.90
2019-04-05T17:57:50.550Z,99.90
2019-04-05T18:00:19.507Z,99.90
2019-04-05T18:02:46.489Z,99.90
2019-04-05T18:05:13.382Z,99.90
2019-04-05T18:07:40.293Z,99.90
2019-04-05T18:10:07.482Z,99.90
2019-04-05T18:12:34.632Z,99.90
2019-04-05T18:15:01.526Z,99.90
2019-04-05T18:17:29.531Z,99.90
2019-04-05T18:19:56.298Z,99.90
2019-04-05T18:22:23.071Z,99.90
2019-04-05T18:24:49.863Z,99.90
2019-04-05T18:27:16.774Z,99.90
2019-04-05T18:29:43.768Z,99.90
2019-04-05T18:32:10.692Z,99.90
2019-04-05T18:34:37.571Z,99.90
2019-04-05T18:37:04.542Z,99.90
2019-04-05T18:39:31.448Z,99.90
2019-04-05T18:41:58.320Z,99.90
2019-04-05T18:44:25.335Z,99.90
2019-04-05T18:46:52.237Z,99.90
2019-04-05T18:49:19.250Z,99.90
2019-04-05T18:51:46.264Z,99.90
2019-04-05T18:54:13.270Z,99.90
2019-04-05T18:56:40.613Z,99.90
2019-04-05T18:59:07.602Z,99.90
2019-04-05T19:01:34.967Z,99.90
2019-04-05T19:04:01.926Z,99.90
2019-04-05T19:06:28.804Z,99.90
2019-04-05T19:08:56.175Z,99.90
2019-04-05T19:11:23.038Z,99.90
2019-04-05T19:14:00.593Z,99.90
2019-04-05T19:16:18.521Z,99.90
2019-04-05T19:18:45.333Z,99.90
2019-04-05T19:21:12.337Z,99.90
2019-04-05T19:23:50.334Z,99.90
2019-04-05T19:26:07.789Z,99.90
2019-04-05T19:28:34.585Z,99.90
2019-04-05T19:50:51.036Z,99.90
2019-04-05T19:53:17.858Z,99.90
2019-04-05T19:55:44.941Z,99.90
2019-04-05T19:58:12.089Z,99.90
2019-04-05T20:00:39.011Z,99.30
2019-04-05T20:03:05.787Z,99.90
2019-04-05T20:05:32.586Z,99.90
2019-04-05T20:07:59.371Z,99.50
2019-04-05T20:10:26.270Z,99.90
2019-04-05T20:12:53.113Z,99.80
2019-04-05T20:15:19.973Z,99.60
2019-04-05T20:17:46.914Z,99.60
2019-04-05T20:20:13.856Z,99.60
2019-04-05T20:22:40.777Z,99.80
2019-04-05T20:25:07.806Z,99.80
2019-04-05T20:27:35.736Z,99.90
2019-04-05T20:30:07.649Z,99.90
2019-04-05T20:32:34.196Z,99.90
2019-04-05T20:35:00.978Z,99.90
2019-04-05T20:37:27.950Z,99.60
2019-04-05T20:39:54.917Z,99.60
2019-04-05T20:42:21.711Z,99.50
2019-04-05T20:44:48.563Z,99.50
2019-04-05T20:47:15.351Z,99.60
2019-04-05T20:49:42.271Z,99.90
2019-04-05T20:52:09.078Z,99.40
2019-04-05T20:54:35.951Z,99.90
2019-04-05T20:57:02.927Z,99.90
2019-04-05T20:59:30.281Z,99.90
2019-04-05T21:01:57.048Z,99.90
2019-04-05T21:04:23.951Z,99.90
2019-04-05T21:06:50.779Z,99.80
2019-04-05T21:09:17.572Z,99.90
2019-04-05T21:11:44.347Z,99.90
2019-04-05T21:14:11.289Z,99.80
2019-04-05T21:16:38.188Z,99.80
2019-04-05T21:19:05.170Z,99.90
2019-04-05T21:21:32.185Z,99.90
2019-04-05T21:24:00.297Z,99.60
2019-04-05T21:26:27.064Z,99.90
2019-04-05T21:28:53.867Z,99.90
2019-04-05T21:31:20.631Z,99.90
2019-04-05T21:33:47.400Z,99.90
2019-04-05T21:36:14.440Z,99.90
2019-04-05T21:38:41.234Z,99.90
2019-04-05T21:41:08.128Z,99.90
2019-04-05T21:43:35.344Z,99.90
2019-04-05T21:46:03.123Z,99.90
2019-04-05T21:48:30.707Z,99.90
2019-04-05T21:50:57.713Z,99.90
2019-04-05T21:53:25.598Z,99.90
2019-04-05T21:55:52.433Z,99.90
2019-04-05T21:58:19.173Z,99.90
2019-04-05T22:00:50.828Z,99.90
2019-04-05T22:03:18.160Z,99.90
2019-04-05T22:05:45.000Z,99.90
2019-04-05T22:08:11.792Z,99.90
2019-04-05T22:10:38.701Z,99.90
2019-04-05T22:13:05.751Z,99.90
2019-04-05T22:15:32.474Z,99.90
2019-04-05T22:17:59.266Z,99.90
2019-04-05T22:20:26.161Z,99.90
2019-04-05T22:22:52.939Z,99.90
2019-04-05T22:25:19.966Z,99.90
2019-04-05T22:27:46.828Z,99.90
2019-04-05T22:30:13.977Z,99.90
2019-04-05T22:32:40.754Z,99.90
2019-04-05T22:35:07.620Z,99.90
2019-04-05T22:37:34.417Z,99.90
2019-04-05T22:40:01.235Z,99.90
2019-04-05T22:42:29.134Z,99.90
2019-04-05T22:44:56.065Z,99.90
2019-04-05T22:47:22.885Z,99.90
2019-04-05T22:49:49.803Z,99.90
2019-04-05T22:52:16.694Z,99.90
2019-04-05T22:54:43.524Z,99.90
2019-04-05T22:57:10.839Z,99.90
2019-04-05T22:59:37.699Z,99.90
2019-04-05T23:02:04.675Z,99.90
2019-04-05T23:04:31.438Z,99.90
2019-04-05T23:06:58.423Z,99.90
2019-04-05T23:09:25.312Z,99.90
2019-04-05T23:11:52.268Z,99.90
2019-04-05T23:14:19.080Z,99.90
2019-04-05T23:16:45.983Z,99.90
2019-04-05T23:19:12.719Z,99.90
2019-04-05T23:21:39.610Z,99.90
2019-04-05T23:24:07.522Z,99.90
2019-04-05T23:26:37.156Z,99.90
2019-04-05T23:29:03.848Z,99.90
2019-04-05T23:31:30.859Z,99.90
2019-04-05T23:33:57.816Z,99.90
2019-04-05T23:36:24.808Z,99.90
2019-04-05T23:38:51.496Z,99.90
2019-04-05T23:41:19.051Z,99.90
2019-04-05T23:43:45.924Z,99.90
2019-04-05T23:46:12.786Z,99.90
2019-04-05T23:48:39.654Z,99.90
2019-04-05T23:51:06.476Z,99.90
2019-04-05T23:53:33.301Z,99.90
2019-04-05T23:56:00.146Z,99.90
2019-04-05T23:58:27.015Z,99.90
